Al Jubail, Saudi Arabia
Current Conditions -  °F | °C
As of 6:00 PM on Friday 31 Oct 2014 (Local Time) from OEDF Reporting Station
Clear Clear  
Wind Chill: 86°   Ceiling: Unl
Heat Index: 87°   Visibility: 6mi
Dew Point: 64°   Wind: 14mph
Humidity: 48%   Direction: 100°E
Pressure: 29.77"   Gusts: NA
Location:  27.01754°N, 49.65477°E
Report Text: OEDF 311500Z 10012KT CAVOK 30/18 Q1008 NOSIG
Loading
Personal Weather Stations






























Interactive Weather Map
Tropical Storm Tracking
New forecast layout! Learn more

10-Day Weather Forecast

Advertisements
Track Severe Weather on mobile